Terminal Aerodrome Forecast
Issued by NWS Northern Indiana

Home | Current Version | Previous Version | Text Only | Print | Product List | Glossary On
Versions: 1 2 3 4 5 6 7 8 9 10 11 12 13 14 15 16 17
000
FTUS43 KIWX 311700
TAFFWA
TAF
KFWA 311720Z 3118/0118 23012KT P6SM SCT050 BKN100
     FM010500 23005KT 2SM -SN OVC020
     FM010900 25005KT 1SM -SN OVC008
     FM011400 08010KT 1/2SM SN FZFG VV004=

USA.gov is the U.S. government's official web portal to all federal, state and local government web resources and services.